Time;durP1;ratioP1;P1;durP2;ratioP2;P2;SDS_P1;SDS_P2;PMS_P1;PMS_P2;Temp;Humidity;BMP_temperature;BMP_pressure;BME280_temperature;BME280_humidity;BME280_pressure;Samples;Min_cycle;Max_cycle;Signal;HPM_P1;HPM_P2
2022/10/12 00:02:25;0.00;0.00;0.62;0.00;0.00;0.62;5.00;3.87;;;27.90;24.60;;;;;;2269014;61;20356;-66
2022/10/12 00:05:10;0.00;0.00;0.62;0.00;0.00;0.62;4.77;3.63;;;27.80;24.50;;;;;;2266164;61;20397;-69
2022/10/12 00:07:55;0.00;0.00;0.62;0.00;0.00;0.62;4.50;3.60;;;27.80;24.50;;;;;;2264802;61;20434;-65
2022/10/12 00:10:41;0.00;0.00;0.62;0.00;0.00;0.62;4.60;3.63;;;27.70;24.40;;;;;;2265410;61;20408;-65
2022/10/12 00:13:27;0.00;0.00;0.62;0.00;0.00;0.62;4.73;3.63;;;27.70;24.50;;;;;;2265376;61;20716;-63
2022/10/12 00:16:16;0.00;0.00;0.62;0.00;0.00;0.62;4.63;3.53;;;27.70;24.50;;;;;;2268069;61;20415;-65
2022/10/12 00:19:03;0.00;0.00;0.62;0.00;0.00;0.62;3.80;2.87;;;27.60;24.50;;;;;;2269786;61;20360;-63
2022/10/12 00:21:47;0.00;0.00;0.62;0.00;0.00;0.62;3.67;3.20;;;27.60;24.50;;;;;;2270367;61;20368;-64
2022/10/12 00:24:32;0.00;0.00;0.62;0.00;0.00;0.62;3.73;3.10;;;27.50;24.50;;;;;;2269117;61;20379;-65
2022/10/12 00:27:17;0.00;0.00;0.62;0.00;0.00;0.62;4.90;3.30;;;27.50;24.50;;;;;;2270407;61;20398;-67
2022/10/12 00:30:03;0.00;0.00;0.62;0.00;0.00;0.62;4.77;3.10;;;27.50;24.50;;;;;;2269597;61;20387;-65
2022/10/12 00:32:48;0.00;0.00;0.62;0.00;0.00;0.62;3.83;3.00;;;27.40;24.50;;;;;;2270024;61;20360;-64
2022/10/12 00:35:35;0.00;0.00;0.62;0.00;0.00;0.62;5.50;3.13;;;27.40;25.00;;;;;;2270481;61;20445;-63
2022/10/12 00:38:21;0.00;0.00;0.62;0.00;0.00;0.62;5.20;3.53;;;27.40;24.50;;;;;;2269110;61;20441;-62
2022/10/12 00:41:06;0.00;0.00;0.62;0.00;0.00;0.62;5.17;2.90;;;27.40;24.60;;;;;;2270264;61;20704;-64
2022/10/12 00:43:52;0.00;0.00;0.62;0.00;0.00;0.62;4.30;3.20;;;27.30;24.50;;;;;;2270246;61;20414;-66
2022/10/12 00:46:40;0.00;0.00;0.62;0.00;0.00;0.62;4.90;3.17;;;27.30;24.50;;;;;;2269276;61;20352;-67
2022/10/12 00:49:26;0.00;0.00;0.62;0.00;0.00;0.62;3.63;2.70;;;27.30;24.50;;;;;;2270359;61;20398;-65
2022/10/12 00:52:16;0.00;0.00;0.62;0.00;0.00;0.62;5.00;3.30;;;27.20;24.50;;;;;;2269446;61;20789;-65
2022/10/12 00:55:02;0.00;0.00;0.62;0.00;0.00;0.62;5.00;2.97;;;27.20;24.50;;;;;;2263695;61;20397;-64
2022/10/12 00:57:49;0.00;0.00;0.62;0.00;0.00;0.62;5.37;2.50;;;27.20;24.50;;;;;;2262148;61;20373;-65
2022/10/12 01:00:36;0.00;0.00;0.62;0.00;0.00;0.62;4.60;2.83;;;27.10;24.40;;;;;;2260906;61;20811;-68
2022/10/12 01:03:21;0.00;0.00;0.62;0.00;0.00;0.62;3.20;2.77;;;27.10;24.40;;;;;;2262011;61;20354;-68
2022/10/12 01:06:07;0.00;0.00;0.62;0.00;0.00;0.62;2.60;2.30;;;27.10;24.40;;;;;;2262169;61;20450;-68
2022/10/12 01:08:56;0.00;0.00;0.62;0.00;0.00;0.62;4.17;2.80;;;27.00;24.30;;;;;;2261096;61;20734;-66
2022/10/12 01:11:41;0.00;0.00;0.62;0.00;0.00;0.62;3.90;2.60;;;27.00;24.40;;;;;;2262252;61;20474;-68
2022/10/12 01:14:26;0.00;0.00;0.62;0.00;0.00;0.62;3.70;2.53;;;27.00;24.40;;;;;;2263496;61;20380;-64
2022/10/12 01:17:27;0.00;0.00;0.62;0.00;0.00;0.62;3.50;2.33;;;27.00;24.40;;;;;;2261775;61;20749;-67
2022/10/12 01:20:42;0.00;0.00;0.62;0.00;0.00;0.62;3.00;2.33;;;26.90;24.30;;;;;;2262028;61;20353;-67
2022/10/12 01:24:13;0.00;0.00;0.62;0.00;0.00;0.62;3.00;2.30;;;26.90;24.30;;;;;;2260798;61;20737;-68
2022/10/12 01:27:28;0.00;0.00;0.62;0.00;0.00;0.62;3.23;2.80;;;26.90;24.30;;;;;;2262006;61;20361;-67
2022/10/12 01:30:21;0.00;0.00;0.62;0.00;0.00;0.62;3.77;2.70;;;26.80;24.20;;;;;;2260968;61;20377;-67
2022/10/12 01:33:25;0.00;0.00;0.62;0.00;0.00;0.62;3.90;2.70;;;26.80;24.20;;;;;;2262009;61;20362;-66
2022/10/12 01:36:18;0.00;0.00;0.62;0.00;0.00;0.62;3.40;2.57;;;26.80;24.30;;;;;;2261549;61;20393;-66
2022/10/12 01:39:12;0.00;0.00;0.62;0.00;0.00;0.62;4.27;2.73;;;26.80;24.20;;;;;;2497109;53;20350;-66
2022/10/12 01:42:02;0.00;0.00;0.62;0.00;0.00;0.62;2.97;2.40;;;26.70;24.20;;;;;;2262047;61;20370;-66
2022/10/12 01:44:46;0.00;0.00;0.62;0.00;0.00;0.62;3.13;2.30;;;26.70;24.20;;;;;;2260728;61;20604;-64
2022/10/12 01:47:34;0.00;0.00;0.62;0.00;0.00;0.62;3.20;2.50;;;26.70;24.20;;;;;;2262064;61;20725;-67
2022/10/12 01:50:24;0.00;0.00;0.62;0.00;0.00;0.62;3.77;2.37;;;26.60;24.10;;;;;;2261994;61;20432;-66
2022/10/12 01:53:25;0.00;0.00;0.62;0.00;0.00;0.62;7.53;2.60;;;26.60;24.20;;;;;;2264417;61;20440;-66
2022/10/12 01:56:19;0.00;0.00;0.62;0.00;0.00;0.62;4.17;3.00;;;26.60;24.20;;;;;;2265972;61;20383;-64
2022/10/12 01:59:14;0.00;0.00;0.62;0.00;0.00;0.62;2.77;2.43;;;26.60;24.20;;;;;;2264629;61;20365;-64
2022/10/12 02:02:09;0.00;0.00;0.62;0.00;0.00;0.62;3.30;2.33;;;26.50;24.20;;;;;;2265964;61;20353;-65
2022/10/12 02:05:01;0.00;0.00;0.62;0.00;0.00;0.62;3.00;2.60;;;26.50;24.20;;;;;;2268260;61;20395;-66
2022/10/12 02:07:51;0.00;0.00;0.62;0.00;0.00;0.62;3.07;2.33;;;26.50;24.20;;;;;;2267248;61;20594;-64
2022/10/12 02:10:42;0.00;0.00;0.62;0.00;0.00;0.62;3.10;2.07;;;26.40;24.20;;;;;;2266047;61;20399;-67
2022/10/12 02:13:33;0.00;0.00;0.62;0.00;0.00;0.62;2.40;2.20;;;26.40;24.10;;;;;;2264915;61;20403;-65
2022/10/12 02:16:23;0.00;0.00;0.62;0.00;0.00;0.62;3.37;2.47;;;26.40;24.10;;;;;;2265765;61;20364;-65
2022/10/12 02:19:14;0.00;0.00;0.62;0.00;0.00;0.62;3.60;2.27;;;26.40;24.10;;;;;;2265628;61;20352;-66
2022/10/12 02:22:04;0.00;0.00;0.62;0.00;0.00;0.62;3.77;2.67;;;26.30;24.10;;;;;;2267198;61;20365;-65
2022/10/12 02:24:50;0.00;0.00;0.62;0.00;0.00;0.62;4.87;2.90;;;26.30;24.10;;;;;;2265689;61;20384;-64
2022/10/12 02:27:40;0.00;0.00;0.62;0.00;0.00;0.62;3.70;2.57;;;26.30;24.10;;;;;;2265839;61;20672;-67
2022/10/12 02:30:26;0.00;0.00;0.62;0.00;0.00;0.62;5.10;2.80;;;26.30;24.20;;;;;;2265337;61;20426;-65
2022/10/12 02:33:16;0.00;0.00;0.62;0.00;0.00;0.62;2.93;2.20;;;26.30;24.20;;;;;;2265707;61;20365;-68
2022/10/12 02:36:07;0.00;0.00;0.62;0.00;0.00;0.62;3.80;2.70;;;26.20;24.10;;;;;;2265127;61;20350;-65
2022/10/12 02:39:01;0.00;0.00;0.62;0.00;0.00;0.62;2.80;2.40;;;26.20;24.20;;;;;;2260780;61;20413;-68
2022/10/12 02:41:51;0.00;0.00;0.62;0.00;0.00;0.62;4.43;2.77;;;26.20;24.20;;;;;;2261265;61;20366;-66
2022/10/12 02:44:39;0.00;0.00;0.62;0.00;0.00;0.62;3.40;2.00;;;26.20;24.20;;;;;;2260587;61;20397;-66
2022/10/12 02:47:28;0.00;0.00;0.62;0.00;0.00;0.62;3.13;2.07;;;26.10;24.10;;;;;;2261778;61;20417;-68
2022/10/12 02:50:16;0.00;0.00;0.62;0.00;0.00;0.62;2.63;2.23;;;26.10;24.10;;;;;;2261482;61;20611;-66
2022/10/12 02:53:02;0.00;0.00;0.62;0.00;0.00;0.62;4.63;2.43;;;26.10;24.10;;;;;;2261324;61;20362;-67
2022/10/12 02:55:49;0.00;0.00;0.62;0.00;0.00;0.62;3.60;2.70;;;26.10;24.10;;;;;;2261352;61;20465;-65
2022/10/12 02:58:34;0.00;0.00;0.62;0.00;0.00;0.62;3.50;2.30;;;26.00;24.00;;;;;;2260861;61;20734;-67
2022/10/12 03:01:19;0.00;0.00;0.62;0.00;0.00;0.62;3.07;2.43;;;26.00;24.00;;;;;;2261379;61;20409;-65
2022/10/12 03:04:05;0.00;0.00;0.62;0.00;0.00;0.62;3.23;2.00;;;26.00;24.10;;;;;;2261761;61;20389;-68
2022/10/12 03:06:49;0.00;0.00;0.62;0.00;0.00;0.62;3.47;1.90;;;26.00;24.10;;;;;;2260723;61;20389;-66
2022/10/12 03:09:34;0.00;0.00;0.62;0.00;0.00;0.62;4.30;1.97;;;25.90;24.00;;;;;;2261860;61;20588;-68
2022/10/12 03:12:20;0.00;0.00;0.62;0.00;0.00;0.62;2.90;2.20;;;25.90;24.00;;;;;;2261517;61;20362;-67
2022/10/12 03:15:05;0.00;0.00;0.62;0.00;0.00;0.62;3.47;2.03;;;25.90;24.00;;;;;;2261702;61;20488;-66
2022/10/12 03:17:50;0.00;0.00;0.62;0.00;0.00;0.62;3.47;2.00;;;25.80;24.00;;;;;;2261772;61;20753;-66
2022/10/12 03:20:35;0.00;0.00;0.62;0.00;0.00;0.62;2.40;1.70;;;25.80;24.00;;;;;;2260921;61;20417;-65
2022/10/12 03:23:20;0.00;0.00;0.62;0.00;0.00;0.62;4.60;1.70;;;25.80;24.00;;;;;;2261536;61;20824;-67
2022/10/12 03:26:05;0.00;0.00;0.62;0.00;0.00;0.62;2.73;1.90;;;25.80;24.00;;;;;;2261917;61;20381;-67
2022/10/12 03:28:51;0.00;0.00;0.62;0.00;0.00;0.62;3.40;1.97;;;25.80;24.00;;;;;;2260576;61;20373;-65
2022/10/12 03:31:36;0.00;0.00;0.62;0.00;0.00;0.62;5.37;2.27;;;25.80;24.00;;;;;;2261717;61;20366;-66
2022/10/12 03:34:20;0.00;0.00;0.62;0.00;0.00;0.62;3.37;1.90;;;25.70;24.00;;;;;;2261578;61;20378;-68
2022/10/12 03:37:05;0.00;0.00;0.62;0.00;0.00;0.62;4.90;2.30;;;25.70;24.00;;;;;;2261369;61;20361;-68
2022/10/12 03:39:50;0.00;0.00;0.62;0.00;0.00;0.62;4.70;2.60;;;25.70;24.00;;;;;;2261596;61;20400;-67
2022/10/12 03:42:34;0.00;0.00;0.62;0.00;0.00;0.62;3.30;2.20;;;25.70;24.00;;;;;;2260706;61;20405;-67
2022/10/12 03:45:20;0.00;0.00;0.62;0.00;0.00;0.62;3.13;2.00;;;25.70;24.00;;;;;;2261309;61;20416;-68
2022/10/12 03:48:06;0.00;0.00;0.62;0.00;0.00;0.62;3.13;2.00;;;25.60;24.00;;;;;;2261733;61;20366;-64
2022/10/12 03:50:52;0.00;0.00;0.62;0.00;0.00;0.62;2.87;1.57;;;25.60;24.00;;;;;;2260475;61;20389;-68
2022/10/12 03:53:37;0.00;0.00;0.62;0.00;0.00;0.62;3.53;2.20;;;25.60;24.00;;;;;;2261264;61;20416;-65
2022/10/12 03:56:21;0.00;0.00;0.62;0.00;0.00;0.62;3.30;1.83;;;25.60;24.00;;;;;;2261702;61;20365;-63
2022/10/12 03:59:06;0.00;0.00;0.62;0.00;0.00;0.62;4.33;2.33;;;25.50;23.90;;;;;;2260575;61;20733;-66
2022/10/12 04:01:52;0.00;0.00;0.62;0.00;0.00;0.62;3.30;1.87;;;25.50;23.90;;;;;;2261568;61;20421;-65
2022/10/12 04:04:37;0.00;0.00;0.62;0.00;0.00;0.62;4.07;2.50;;;25.50;24.00;;;;;;2260808;61;20385;-65
2022/10/12 04:07:22;0.00;0.00;0.62;0.00;0.00;0.62;3.70;2.00;;;25.40;23.90;;;;;;2261599;61;20361;-66
2022/10/12 04:10:08;0.00;0.00;0.62;0.00;0.00;0.62;3.13;2.00;;;25.40;23.90;;;;;;2262021;61;20430;-67
2022/10/12 04:12:53;0.00;0.00;0.62;0.00;0.00;0.62;2.50;1.60;;;25.40;23.90;;;;;;2260483;61;20397;-64
2022/10/12 04:15:37;0.00;0.00;0.62;0.00;0.00;0.62;3.50;1.97;;;25.40;24.00;;;;;;2261620;61;20600;-64
2022/10/12 04:18:23;0.00;0.00;0.62;0.00;0.00;0.62;2.90;1.80;;;25.40;24.00;;;;;;2261677;61;20786;-66
2022/10/12 04:21:13;0.00;0.00;0.62;0.00;0.00;0.62;3.20;2.10;;;25.30;24.00;;;;;;2260457;61;20550;-67
2022/10/12 04:23:58;0.00;0.00;0.62;0.00;0.00;0.62;2.70;1.73;;;25.30;24.00;;;;;;2261478;61;20397;-65
2022/10/12 04:26:43;0.00;0.00;0.62;0.00;0.00;0.62;2.77;1.57;;;25.30;24.00;;;;;;2260796;61;20493;-66
2022/10/12 04:29:28;0.00;0.00;0.62;0.00;0.00;0.62;4.10;2.10;;;25.20;23.90;;;;;;2261230;61;20373;-66
2022/10/12 04:32:13;0.00;0.00;0.62;0.00;0.00;0.62;2.90;1.70;;;25.20;24.50;;;;;;2261916;61;20357;-64
2022/10/12 04:34:59;0.00;0.00;0.62;0.00;0.00;0.62;2.60;1.60;;;25.20;23.90;;;;;;2260349;61;20406;-65
2022/10/12 04:37:43;0.00;0.00;0.62;0.00;0.00;0.62;3.77;1.77;;;25.20;23.90;;;;;;2261629;61;20369;-68
2022/10/12 04:40:28;0.00;0.00;0.62;0.00;0.00;0.62;3.20;2.10;;;25.20;23.90;;;;;;2261553;61;20361;-68
2022/10/12 04:43:13;0.00;0.00;0.62;0.00;0.00;0.62;2.77;1.90;;;25.20;24.00;;;;;;2260178;61;20354;-65
2022/10/12 04:45:59;0.00;0.00;0.62;0.00;0.00;0.62;3.83;1.70;;;25.20;24.50;;;;;;2261629;61;20393;-67
2022/10/12 04:48:44;0.00;0.00;0.62;0.00;0.00;0.62;3.00;1.83;;;25.20;24.00;;;;;;2260266;61;20789;-65
2022/10/12 04:51:29;0.00;0.00;0.62;0.00;0.00;0.62;2.67;1.70;;;25.10;24.00;;;;;;2261408;61;20440;-67
2022/10/12 04:54:14;0.00;0.00;0.62;0.00;0.00;0.62;3.23;1.80;;;25.10;24.00;;;;;;2261481;61;20381;-68
2022/10/12 04:56:59;0.00;0.00;0.62;0.00;0.00;0.62;2.30;1.80;;;25.10;24.00;;;;;;2260500;61;20489;-68
2022/10/12 04:59:43;0.00;0.00;0.62;0.00;0.00;0.62;3.10;2.03;;;25.10;24.00;;;;;;2261409;61;20385;-67
2022/10/12 05:02:28;0.00;0.00;0.62;0.00;0.00;0.62;3.80;1.63;;;25.10;24.00;;;;;;2261468;61;20389;-67
2022/10/12 05:05:13;0.00;0.00;0.62;0.00;0.00;0.62;2.83;1.80;;;25.10;24.00;;;;;;2260496;61;20392;-63
2022/10/12 05:08:00;0.00;0.00;0.62;0.00;0.00;0.62;2.93;1.70;;;25.10;24.00;;;;;;2262153;61;20492;-68
2022/10/12 05:10:45;0.00;0.00;0.62;0.00;0.00;0.62;2.77;1.60;;;25.00;24.00;;;;;;2261685;61;20362;-65
2022/10/12 05:13:30;0.00;0.00;0.62;0.00;0.00;0.62;3.00;1.70;;;25.00;24.00;;;;;;2261819;61;20420;-65
2022/10/12 05:16:15;0.00;0.00;0.62;0.00;0.00;0.62;2.60;1.83;;;25.00;24.00;;;;;;2262037;61;20416;-65
2022/10/12 05:19:00;0.00;0.00;0.62;0.00;0.00;0.62;3.77;1.77;;;25.00;24.00;;;;;;2261226;61;20393;-71
2022/10/12 05:21:45;0.00;0.00;0.62;0.00;0.00;0.62;3.83;2.10;;;25.00;24.00;;;;;;2262218;61;20361;-65
2022/10/12 05:24:30;0.00;0.00;0.62;0.00;0.00;0.62;3.67;2.00;;;25.00;24.00;;;;;;2262618;61;20455;-67
2022/10/12 05:27:15;0.00;0.00;0.62;0.00;0.00;0.62;4.33;2.43;;;25.00;24.10;;;;;;2263265;61;20861;-65
2022/10/12 05:30:00;0.00;0.00;0.62;0.00;0.00;0.62;3.73;2.30;;;25.00;24.20;;;;;;2262216;61;20365;-62
2022/10/12 05:32:44;0.00;0.00;0.62;0.00;0.00;0.62;2.97;2.30;;;24.90;24.10;;;;;;2261880;61;20757;-63
2022/10/12 05:35:29;0.00;0.00;0.62;0.00;0.00;0.62;4.13;2.37;;;24.90;24.20;;;;;;2263375;61;20436;-60
2022/10/12 05:38:13;0.00;0.00;0.62;0.00;0.00;0.62;2.80;1.93;;;24.90;24.20;;;;;;2261659;61;20718;-62
2022/10/12 05:40:59;0.00;0.00;0.62;0.00;0.00;0.62;5.60;2.37;;;24.90;24.20;;;;;;2261211;61;20373;-63
2022/10/12 05:43:44;0.00;0.00;0.62;0.00;0.00;0.62;2.63;2.00;;;24.90;24.20;;;;;;2261647;61;20402;-62
2022/10/12 05:46:29;0.00;0.00;0.62;0.00;0.00;0.62;6.50;2.47;;;24.90;24.20;;;;;;2261929;61;20365;-64
2022/10/12 05:49:13;0.00;0.00;0.62;0.00;0.00;0.62;4.03;2.47;;;24.90;24.20;;;;;;2261039;61;20378;-60
2022/10/12 05:51:58;0.00;0.00;0.62;0.00;0.00;0.62;3.60;2.10;;;24.90;24.20;;;;;;2262054;61;20381;-63
2022/10/12 05:54:43;0.00;0.00;0.62;0.00;0.00;0.62;3.00;2.40;;;24.90;24.30;;;;;;2261874;61;20424;-61
2022/10/12 05:57:29;0.00;0.00;0.62;0.00;0.00;0.62;3.03;2.37;;;24.80;24.20;;;;;;2261211;61;20358;-65
2022/10/12 06:00:14;0.00;0.00;0.62;0.00;0.00;0.62;6.00;2.30;;;24.80;24.20;;;;;;2261833;61;20471;-66
2022/10/12 06:02:59;0.00;0.00;0.62;0.00;0.00;0.62;2.50;1.90;;;24.80;24.20;;;;;;2261095;61;20578;-64
2022/10/12 06:05:44;0.00;0.00;0.62;0.00;0.00;0.62;4.10;2.20;;;24.80;24.20;;;;;;2261964;61;20709;-65
2022/10/12 06:08:29;0.00;0.00;0.62;0.00;0.00;0.62;3.80;2.13;;;24.80;24.20;;;;;;2261816;61;20405;-64
2022/10/12 06:11:14;0.00;0.00;0.62;0.00;0.00;0.62;4.30;2.33;;;24.80;24.20;;;;;;2261020;61;20737;-64
2022/10/12 06:14:00;0.00;0.00;0.62;0.00;0.00;0.62;4.20;2.40;;;24.80;24.30;;;;;;2261812;61;20374;-63
2022/10/12 06:16:45;0.00;0.00;0.62;0.00;0.00;0.62;4.63;2.23;;;24.80;24.30;;;;;;2261763;61;20678;-65
2022/10/12 06:19:30;0.00;0.00;0.62;0.00;0.00;0.62;3.63;2.40;;;24.80;24.30;;;;;;2261109;61;20366;-65
2022/10/12 06:22:15;0.00;0.00;0.62;0.00;0.00;0.62;3.33;2.10;;;24.70;24.20;;;;;;2261811;61;20390;-65
2022/10/12 06:25:00;0.00;0.00;0.62;0.00;0.00;0.62;4.27;2.33;;;24.70;24.20;;;;;;2260863;61;20549;-63
2022/10/12 06:27:45;0.00;0.00;0.62;0.00;0.00;0.62;3.10;1.80;;;24.70;24.20;;;;;;2261591;61;20362;-66
2022/10/12 06:30:31;0.00;0.00;0.62;0.00;0.00;0.62;3.10;1.73;;;24.70;24.20;;;;;;2261843;61;20768;-67
2022/10/12 06:33:16;0.00;0.00;0.62;0.00;0.00;0.62;3.40;2.00;;;24.70;24.20;;;;;;2259579;61;20742;-69
2022/10/12 06:36:00;0.00;0.00;0.62;0.00;0.00;0.62;3.70;2.20;;;24.70;24.20;;;;;;2261159;61;20359;-66
2022/10/12 06:38:47;0.00;0.00;0.62;0.00;0.00;0.62;3.20;2.30;;;24.70;24.20;;;;;;2261434;61;20761;-65
2022/10/12 06:41:32;0.00;0.00;0.62;0.00;0.00;0.62;3.47;1.97;;;24.70;24.30;;;;;;2261386;61;20365;-60
2022/10/12 06:44:16;0.00;0.00;0.62;0.00;0.00;0.62;3.10;2.30;;;24.70;24.30;;;;;;2261698;61;20425;-65
2022/10/12 06:47:02;0.00;0.00;0.62;0.00;0.00;0.62;3.63;2.47;;;24.70;24.20;;;;;;2261390;61;20589;-64
2022/10/12 06:49:47;0.00;0.00;0.62;0.00;0.00;0.62;3.20;2.17;;;24.60;24.10;;;;;;2259148;61;20381;-64
2022/10/12 06:52:32;0.00;0.00;0.62;0.00;0.00;0.62;5.00;2.40;;;24.60;24.10;;;;;;2261791;61;20479;-62
2022/10/12 06:55:17;0.00;0.00;0.62;0.00;0.00;0.62;5.87;2.57;;;24.60;24.10;;;;;;2258779;61;20382;-64
2022/10/12 06:58:02;0.00;0.00;0.62;0.00;0.00;0.62;6.03;2.60;;;24.60;24.10;;;;;;2261299;61;20365;-62
2022/10/12 07:00:46;0.00;0.00;0.62;0.00;0.00;0.62;2.90;2.17;;;24.60;24.20;;;;;;2261798;61;20362;-63
2022/10/12 07:03:33;0.00;0.00;0.62;0.00;0.00;0.62;3.73;2.67;;;24.50;24.10;;;;;;2258747;61;20381;-61
2022/10/12 07:06:18;0.00;0.00;0.62;0.00;0.00;0.62;4.00;2.50;;;24.60;24.10;;;;;;2261821;61;20350;-60
2022/10/12 07:09:03;0.00;0.00;0.62;0.00;0.00;0.62;3.60;2.20;;;24.50;24.00;;;;;;2261884;61;20377;-65
2022/10/12 07:11:47;0.00;0.00;0.62;0.00;0.00;0.62;4.30;2.60;;;24.50;24.10;;;;;;2260958;61;20577;-61
2022/10/12 07:14:32;0.00;0.00;0.62;0.00;0.00;0.62;2.60;2.17;;;24.50;24.10;;;;;;2256094;61;20405;-63
2022/10/12 07:17:17;0.00;0.00;0.62;0.00;0.00;0.62;4.60;2.57;;;24.50;24.10;;;;;;2260861;61;20646;-57
2022/10/12 07:20:05;0.00;0.00;0.62;0.00;0.00;0.62;5.87;2.50;;;24.50;24.10;;;;;;2262154;61;20439;-60
2022/10/12 07:22:52;0.00;0.00;0.62;0.00;0.00;0.62;2.67;2.00;;;24.50;24.20;;;;;;2265003;61;20369;-62
2022/10/12 07:25:37;0.00;0.00;0.62;0.00;0.00;0.62;5.03;2.20;;;24.40;24.10;;;;;;2264617;61;20464;-61
2022/10/12 07:28:22;0.00;0.00;0.62;0.00;0.00;0.62;2.90;2.10;;;24.50;24.20;;;;;;2265482;61;20767;-62
2022/10/12 07:31:11;0.00;0.00;0.62;0.00;0.00;0.62;3.13;2.03;;;24.50;24.20;;;;;;2264840;61;20356;-61
2022/10/12 07:33:56;0.00;0.00;0.62;0.00;0.00;0.62;4.03;2.40;;;24.50;24.20;;;;;;2265201;61;20373;-67
2022/10/12 07:36:43;0.00;0.00;0.62;0.00;0.00;0.62;2.90;2.40;;;24.50;24.20;;;;;;2265412;61;20357;-61
2022/10/12 07:39:28;0.00;0.00;0.62;0.00;0.00;0.62;3.93;2.43;;;24.50;24.20;;;;;;2264533;61;20361;-62
2022/10/12 07:42:14;0.00;0.00;0.62;0.00;0.00;0.62;3.20;2.13;;;24.50;24.70;;;;;;2265128;61;20387;-60
2022/10/12 07:44:59;0.00;0.00;0.62;0.00;0.00;0.62;6.30;2.30;;;24.50;24.20;;;;;;2265267;61;20397;-61
2022/10/12 07:47:45;0.00;0.00;0.62;0.00;0.00;0.62;5.17;2.70;;;24.50;24.20;;;;;;2264830;61;20365;-62
2022/10/12 07:50:30;0.00;0.00;0.62;0.00;0.00;0.62;5.70;2.60;;;24.50;24.30;;;;;;2265329;61;20396;-60
2022/10/12 07:53:17;0.00;0.00;0.62;0.00;0.00;0.62;3.53;2.60;;;24.50;24.30;;;;;;2265020;61;20361;-60
2022/10/12 07:56:05;0.00;0.00;0.62;0.00;0.00;0.62;5.83;2.30;;;24.50;24.30;;;;;;2267523;61;20431;-62
2022/10/12 07:58:52;0.00;0.00;0.62;0.00;0.00;0.62;4.63;2.67;;;24.50;24.30;;;;;;2265693;61;20360;-63
2022/10/12 08:01:37;0.00;0.00;0.62;0.00;0.00;0.62;5.70;2.90;;;24.50;24.30;;;;;;2264916;61;20436;-60
2022/10/12 08:04:22;0.00;0.00;0.62;0.00;0.00;0.62;2.77;1.90;;;24.50;24.40;;;;;;2264414;61;20425;-61
2022/10/12 08:07:08;0.00;0.00;0.62;0.00;0.00;0.62;2.90;1.83;;;24.50;24.40;;;;;;2264989;61;20712;-60
2022/10/12 08:09:54;0.00;0.00;0.62;0.00;0.00;0.62;2.47;1.90;;;24.50;24.40;;;;;;2265154;61;20364;-63
2022/10/12 08:12:39;0.00;0.00;0.62;0.00;0.00;0.62;2.50;1.83;;;24.50;24.40;;;;;;2265332;61;20369;-61
2022/10/12 08:15:24;0.00;0.00;0.62;0.00;0.00;0.62;5.23;2.70;;;24.50;24.40;;;;;;2264753;61;20484;-60
2022/10/12 08:18:09;0.00;0.00;0.62;0.00;0.00;0.62;2.30;1.70;;;24.60;24.50;;;;;;2269671;58;20406;-62
2022/10/12 08:20:55;0.00;0.00;0.62;0.00;0.00;0.62;2.63;1.60;;;24.60;24.50;;;;;;2269685;61;20406;-59
2022/10/12 08:23:40;0.00;0.00;0.62;0.00;0.00;0.62;5.10;2.20;;;24.60;24.50;;;;;;2268690;61;20451;-61
2022/10/12 08:26:28;0.00;0.00;0.62;0.00;0.00;0.62;3.50;2.20;;;24.60;24.50;;;;;;2265940;61;20725;-62
2022/10/12 08:29:13;0.00;0.00;0.62;0.00;0.00;0.62;3.00;2.00;;;24.70;24.60;;;;;;2288939;61;20418;-61
2022/10/12 08:31:57;0.00;0.00;0.62;0.00;0.00;0.62;3.07;1.80;;;24.70;24.70;;;;;;2264604;61;20405;-62
2022/10/12 08:34:42;0.00;0.00;0.62;0.00;0.00;0.62;3.70;2.67;;;24.70;24.60;;;;;;2265387;61;20436;-60
2022/10/12 08:37:27;0.00;0.00;0.62;0.00;0.00;0.62;4.47;2.53;;;24.70;24.70;;;;;;2262196;61;20365;-64
2022/10/12 08:40:15;0.00;0.00;0.62;0.00;0.00;0.62;2.63;1.70;;;24.80;24.80;;;;;;2263571;61;20372;-59
2022/10/12 08:43:09;0.00;0.00;0.62;0.00;0.00;0.62;3.03;2.10;;;24.80;24.80;;;;;;2269949;61;20359;-60
2022/10/12 08:45:57;0.00;0.00;0.62;0.00;0.00;0.62;2.60;1.60;;;24.80;24.80;;;;;;2269845;61;20773;-61
2022/10/12 08:48:48;0.00;0.00;0.62;0.00;0.00;0.62;2.60;1.80;;;24.90;24.90;;;;;;2269327;61;20441;-63
2022/10/12 08:51:48;0.00;0.00;0.62;0.00;0.00;0.62;2.60;1.50;;;24.90;24.90;;;;;;2269647;61;20391;-61
2022/10/12 08:54:40;0.00;0.00;0.62;0.00;0.00;0.62;3.57;2.10;;;24.90;24.90;;;;;;2265132;61;20389;-60
2022/10/12 08:57:25;0.00;0.00;0.62;0.00;0.00;0.62;4.27;2.40;;;25.00;25.00;;;;;;2266233;61;20358;-64
2022/10/12 09:00:15;0.00;0.00;0.62;0.00;0.00;0.62;2.87;1.83;;;25.00;25.00;;;;;;2263154;61;20428;-62
2022/10/12 09:03:12;0.00;0.00;0.62;0.00;0.00;0.62;3.57;2.23;;;25.10;25.10;;;;;;2261708;61;20566;-62
2022/10/12 09:06:09;0.00;0.00;0.62;0.00;0.00;0.62;3.40;2.03;;;25.10;25.10;;;;;;2263729;61;20393;-61
2022/10/12 09:09:06;0.00;0.00;0.62;0.00;0.00;0.62;3.37;2.30;;;25.10;25.10;;;;;;2265225;61;20361;-62
2022/10/12 09:12:07;0.00;0.00;0.62;0.00;0.00;0.62;2.83;1.93;;;25.10;25.10;;;;;;2266102;61;20740;-61
2022/10/12 09:14:59;0.00;0.00;0.62;0.00;0.00;0.62;3.10;2.23;;;25.20;25.20;;;;;;2264414;61;20396;-59
2022/10/12 09:17:51;0.00;0.00;0.62;0.00;0.00;0.62;2.53;1.97;;;25.20;25.20;;;;;;2360857;53;20366;-63
2022/10/12 09:20:45;0.00;0.00;0.62;0.00;0.00;0.62;3.40;2.50;;;25.30;25.30;;;;;;2261291;61;20377;-60
2022/10/12 09:23:33;0.00;0.00;0.62;0.00;0.00;0.62;4.00;2.10;;;25.30;25.30;;;;;;2261696;61;20503;-60
2022/10/12 09:26:28;0.00;0.00;0.62;0.00;0.00;0.62;2.33;1.73;;;25.40;25.30;;;;;;2269901;61;20389;-60
2022/10/12 09:29:24;0.00;0.00;0.62;0.00;0.00;0.62;3.40;2.23;;;25.40;25.40;;;;;;2263388;61;20598;-60
2022/10/12 09:32:30;0.00;0.00;0.62;0.00;0.00;0.62;2.40;2.00;;;25.50;25.40;;;;;;2265389;61;20419;-60
2022/10/12 09:35:16;0.00;0.00;0.62;0.00;0.00;0.62;4.90;2.40;;;25.50;25.40;;;;;;2264223;61;20411;-63
2022/10/12 09:38:01;0.00;0.00;0.62;0.00;0.00;0.62;2.93;1.40;;;25.50;25.40;;;;;;2265547;61;20435;-62
2022/10/12 09:40:46;0.00;0.00;0.62;0.00;0.00;0.62;2.67;2.00;;;25.60;25.50;;;;;;2265024;61;20365;-61
2022/10/12 09:43:31;0.00;0.00;0.62;0.00;0.00;0.62;3.07;2.10;;;25.60;25.50;;;;;;2264766;61;20445;-60
2022/10/12 09:46:21;0.00;0.00;0.62;0.00;0.00;0.62;3.17;1.63;;;25.70;25.50;;;;;;2265034;61;20765;-63
2022/10/12 09:49:06;0.00;0.00;0.62;0.00;0.00;0.62;2.70;1.97;;;25.70;25.50;;;;;;2434730;53;20415;-63
2022/10/12 09:51:59;0.00;0.00;0.62;0.00;0.00;0.62;3.13;2.50;;;25.70;25.50;;;;;;2265222;61;20372;-62
2022/10/12 09:54:49;0.00;0.00;0.62;0.00;0.00;0.62;3.93;1.87;;;25.80;25.50;;;;;;2265162;61;20392;-61
2022/10/12 09:57:37;0.00;0.00;0.62;0.00;0.00;0.62;3.07;2.00;;;25.80;25.50;;;;;;2265400;61;20411;-65
2022/10/12 10:00:27;0.00;0.00;0.62;0.00;0.00;0.62;2.80;2.07;;;25.90;25.50;;;;;;2587264;45;20369;-59
2022/10/12 10:03:24;0.00;0.00;0.62;0.00;0.00;0.62;4.00;2.37;;;25.90;25.60;;;;;;2265688;61;20373;-64
2022/10/12 10:06:10;0.00;0.00;0.62;0.00;0.00;0.62;4.07;2.43;;;26.00;25.60;;;;;;2265320;61;20748;-62
2022/10/12 10:08:57;0.00;0.00;0.62;0.00;0.00;0.62;3.80;2.40;;;26.00;25.50;;;;;;2265127;61;20452;-65
2022/10/12 10:11:42;0.00;0.00;0.62;0.00;0.00;0.62;3.00;2.10;;;26.10;25.60;;;;;;2265812;61;20424;-62
2022/10/12 10:14:34;0.00;0.00;0.62;0.00;0.00;0.62;4.07;2.90;;;26.10;25.60;;;;;;2267696;61;20819;-62
2022/10/12 10:17:25;0.00;0.00;0.62;0.00;0.00;0.62;3.13;2.30;;;26.20;25.60;;;;;;2265639;61;20373;-64
2022/10/12 10:20:24;0.00;0.00;0.62;0.00;0.00;0.62;3.20;2.20;;;26.20;25.60;;;;;;2265361;61;20369;-64
2022/10/12 10:23:23;0.00;0.00;0.62;0.00;0.00;0.62;3.10;2.10;;;26.20;25.70;;;;;;2585617;45;20451;-65
2022/10/12 10:26:13;0.00;0.00;0.62;0.00;0.00;0.62;2.40;2.03;;;26.30;25.70;;;;;;2469899;45;20408;-61
2022/10/12 10:29:23;0.00;0.00;0.62;0.00;0.00;0.62;2.77;2.20;;;26.30;25.70;;;;;;2265185;61;20368;-64
2022/10/12 10:32:36;0.00;0.00;0.62;0.00;0.00;0.62;3.37;2.13;;;26.40;25.70;;;;;;2265361;61;20381;-62
2022/10/12 10:35:21;0.00;0.00;0.62;0.00;0.00;0.62;2.50;1.80;;;26.40;25.70;;;;;;2265497;61;20606;-63
2022/10/12 10:38:14;0.00;0.00;0.62;0.00;0.00;0.62;3.87;2.50;;;26.50;25.80;;;;;;2265032;61;20634;-62
2022/10/12 10:41:05;0.00;0.00;0.62;0.00;0.00;0.62;3.10;2.47;;;26.50;25.80;;;;;;2266015;61;20384;-62
2022/10/12 10:43:52;0.00;0.00;0.62;0.00;0.00;0.62;2.90;1.97;;;26.60;25.80;;;;;;2599452;45;20412;-63
2022/10/12 10:46:36;0.00;0.00;0.62;0.00;0.00;0.62;2.50;1.97;;;26.60;25.80;;;;;;2265345;61;20476;-63
2022/10/12 10:49:32;0.00;0.00;0.62;0.00;0.00;0.62;2.77;2.40;;;26.70;25.80;;;;;;2265362;61;20747;-63
2022/10/12 10:52:23;0.00;0.00;0.62;0.00;0.00;0.62;2.73;1.90;;;26.80;25.90;;;;;;2529687;45;20365;-62
2022/10/12 10:55:19;0.00;0.00;0.62;0.00;0.00;0.62;2.17;1.70;;;26.80;26.40;;;;;;2265718;61;20451;-64
2022/10/12 10:58:09;0.00;0.00;0.62;0.00;0.00;0.62;3.00;2.40;;;26.90;25.90;;;;;;2264446;61;20782;-63
2022/10/12 11:01:02;0.00;0.00;0.62;0.00;0.00;0.62;2.00;1.53;;;26.90;26.00;;;;;;2263528;61;20400;-62
2022/10/12 11:03:57;0.00;0.00;0.62;0.00;0.00;0.62;2.53;1.87;;;27.00;26.00;;;;;;2265215;61;20409;-63